Aeroporto :
LOGIN :

Iscrizione | Disclaimer

   EN    FR    IT 

 










Sommario :    VFR   VFR Marginale   IFR   IFR Intensivo   IFR Molto Intensivo
Visibilità : 
Base nubi : 
>= 8 km
>= 3000ft
5 / 8 km
1000 / 3000 ft
1500m / 5 km
500 / 1000 ft
800 / 1500m
200 / 500 ft
< 800m
< 200 ft
Simboli :   Temporali  Nebbia  Neve Forte  Precipitazioni Forti  Vento > 20 kt
SIGMETs :   Varie  Temporali  Ghiacco  Turbolenza  Onda orograficha  Ceneri Vulcaniche






- Altitudine del aeroporto : 157 ft
- Codice IATA : SXF


EDDB - Berlin Schönefeld

ULTIMO METAR :
  • 041650Z 09005KT CAVOK 01/M01 Q0995 NOSIG

METARs OBSOLETI :
  • 041620Z 10004KT CAVOK 02/M00 Q0995 NOSIG
  • 041550Z 10004KT 040V160 CAVOK 02/M00 Q0995 NOSIG
  • 041520Z 11007KT CAVOK 03/00 Q0995 NOSIG
  • 041450Z 11008KT CAVOK 03/00 Q0995 NOSIG
  • 041420Z 11010KT CAVOK 04/00 Q0994 NOSIG

TAF TAF EDDB
Valido dal 04 a 12 ore il 05 a 12 ore UTC


041100Z 0412/0512 11009KT CAVOK
BECMG 0508/0510 17009KT



MetMap, La meteo Aeronautica in un colpo d'occhio ! - Copyright ORBIFLY Dicembre 2007 - Disclaimer

ORBIFLY MET'MAP TEAM :

Programmazione e sviluppo : Alexandra Zaïnal
Concezione : Baudouin d'Aumeries
Aiuto per la programmazione : Marc-Olivier Méhu
Supporto tecnico e logistico : Manuel Goepfert
Aiuto per la traduzione : Arnaldo La Scala

Contatto : metmap@orbifly.com




FONTI E CREDITI :

   NOAA